Aeroporto :
LOGIN :

Iscrizione | Disclaimer

   EN    FR    IT 

 










Sommario :    VFR   VFR Marginale   IFR   IFR Intensivo   IFR Molto Intensivo
Visibilità : 
Base nubi : 
>= 8 km
>= 3000ft
5 / 8 km
1000 / 3000 ft
1500m / 5 km
500 / 1000 ft
800 / 1500m
200 / 500 ft
< 800m
< 200 ft
Simboli :   Temporali  Nebbia  Neve Forte  Precipitazioni Forti  Vento > 20 kt
SIGMETs :   Varie  Temporali  Ghiacco  Turbolenza  Onda orograficha  Ceneri Vulcaniche







- Altitudine del aeroporto : 587 ft
- Codice IATA : XCR
- Carte del aeroporto


LFOK - Chalons Vatry

ULTIMO METAR :
  • 181000Z AUTO 14017KT CAVOK 05/04 Q1021 NOSIG

METARs OBSOLETI :
  • 180930Z AUTO 15013KT CAVOK 04/03 Q1021 NOSIG
  • 180900Z AUTO 14012KT CAVOK 03/03 Q1021 NOSIG
  • 180830Z AUTO 15011KT CAVOK 02/02 Q1022 NOSIG
  • 180800Z AUTO 15011KT CAVOK 01/01 Q1022 TEMPO 4000 BR
  • 180730Z AUTO 15010KT CAVOK 01/01 Q1022 TEMPO 4000 BR

TAF TAF LFOK
Valido dal 18 a 06 ore il 19 a 06 ore UTC


180500Z 1806/1906 18008KT 8000 SCT030
TEMPO 1806/1809 4000 BR
BECMG 1900/1903 RA OVC013
TEMPO 1903/1906 3000 DZRA OVC005
Nessun NOTAM noto per questo aeroporto.



MetMap, La meteo Aeronautica in un colpo d'occhio ! - Copyright ORBIFLY Dicembre 2007 - Disclaimer

ORBIFLY MET'MAP TEAM :

Programmazione e sviluppo : Alexandra Zaïnal
Concezione e sviluppo : Baudouin d'Aumeries
Co-Programmazione e sviluppo : Marc-Olivier Méhu
Supporto tecnico e logistico : Manuel Goepfert
Aiuto per la traduzione : Arnaldo La Scala

Contatto : metmap@orbifly.com




FONTI E CREDITI :

   NOAA